Time;durP1;ratioP1;P1;durP2;ratioP2;P2;SDS_P1;SDS_P2;PMS_P1;PMS_P2;Temp;Humidity;BMP_temperature;BMP_pressure;BME280_temperature;BME280_humidity;BME280_pressure;Samples;Min_cycle;Max_cycle;Signal;HPM_P1;HPM_P2
2022/04/01 00:02:44;;;;;;;9.38;4.85;;;;;;;;;;6193668;28;20373;-71
2022/04/01 00:05:44;;;;;;;8.70;4.18;;;;;;;;;;6194228;28;20066;-70
2022/04/01 00:08:44;;;;;;;8.13;4.50;;;;;;;;;;6193937;28;20093;-70
2022/04/01 00:11:45;;;;;;;9.90;6.22;;;;;;;;;;6194108;28;20026;-70
2022/04/01 00:14:45;;;;;;;10.90;5.53;;;;;;;;;;6193314;28;20105;-70
2022/04/01 00:17:45;;;;;;;12.35;5.15;;;;;;;;;;6192072;28;20336;-71
2022/04/01 00:20:46;;;;;;;10.38;5.30;;;;;;;;;;6194197;28;20042;-70
2022/04/01 00:23:46;;;;;;;8.60;5.10;;;;;;;;;;6193708;28;20015;-70
2022/04/01 00:26:46;;;;;;;9.82;5.30;;;;;;;;;;6194485;28;20025;-70
2022/04/01 00:29:48;;;;;;;10.00;5.53;;;;;;;;;;6193477;28;20030;-70
2022/04/01 00:32:48;;;;;;;9.32;4.85;;;;;;;;;;6181500;28;20047;-70
2022/04/01 00:35:49;;;;;;;8.50;5.03;;;;;;;;;;6184345;28;20393;-70
2022/04/01 00:38:49;;;;;;;9.65;4.85;;;;;;;;;;6169390;28;20034;-70
2022/04/01 00:41:50;;;;;;;8.20;4.65;;;;;;;;;;6170152;28;20022;-70
2022/04/01 00:44:50;;;;;;;6.65;4.40;;;;;;;;;;6168566;28;20386;-70
2022/04/01 00:47:51;;;;;;;10.35;5.43;;;;;;;;;;6169845;28;20019;-70
2022/04/01 00:50:51;;;;;;;9.32;4.35;;;;;;;;;;6174491;28;20030;-70
2022/04/01 00:53:52;;;;;;;12.77;6.05;;;;;;;;;;6193644;28;20018;-70
2022/04/01 00:56:52;;;;;;;9.18;4.78;;;;;;;;;;6193632;28;20157;-71
2022/04/01 00:59:54;;;;;;;7.95;4.68;;;;;;;;;;6193200;28;20018;-70
2022/04/01 01:02:54;;;;;;;7.37;4.10;;;;;;;;;;6193265;28;20426;-70
2022/04/01 01:05:54;;;;;;;9.32;5.07;;;;;;;;;;6193877;28;20312;-70
2022/04/01 01:08:54;;;;;;;5.93;3.90;;;;;;;;;;6193222;28;20050;-70
2022/04/01 01:11:55;;;;;;;6.88;4.50;;;;;;;;;;6193264;28;20428;-71
2022/04/01 01:14:55;;;;;;;11.63;5.55;;;;;;;;;;6195229;28;20177;-71
2022/04/01 01:17:55;;;;;;;7.78;4.75;;;;;;;;;;6196240;28;20527;-71
2022/04/01 01:20:55;;;;;;;11.00;5.50;;;;;;;;;;6196187;28;20018;-71
2022/04/01 01:23:56;;;;;;;8.87;4.50;;;;;;;;;;6196058;28;20019;-71
2022/04/01 01:26:57;;;;;;;9.93;5.38;;;;;;;;;;6195816;28;20254;-71
2022/04/01 01:29:57;;;;;;;9.60;4.75;;;;;;;;;;6196986;28;20067;-71
2022/04/01 01:32:58;;;;;;;7.57;4.50;;;;;;;;;;6183913;28;20437;-71
2022/04/01 01:35:58;;;;;;;6.95;4.15;;;;;;;;;;6182449;28;20748;-71
2022/04/01 01:38:58;;;;;;;9.05;5.32;;;;;;;;;;6195509;28;20093;-71
2022/04/01 01:41:59;;;;;;;11.07;4.68;;;;;;;;;;6195702;28;20145;-71
2022/04/01 01:44:59;;;;;;;7.47;3.35;;;;;;;;;;6195217;28;20109;-70
2022/04/01 01:47:59;;;;;;;10.27;5.53;;;;;;;;;;6193477;28;20102;-70
2022/04/01 01:57:37;;;;;;;8.40;4.85;;;;;;;;;;6196675;28;20038;-71
2022/04/01 02:00:38;;;;;;;7.70;4.68;;;;;;;;;;6196447;28;20061;-71
2022/04/01 02:03:38;;;;;;;7.72;4.80;;;;;;;;;;6195062;28;20053;-71
2022/04/01 02:06:38;;;;;;;7.93;5.07;;;;;;;;;;6197045;28;20354;-71
2022/04/01 02:09:40;;;;;;;8.88;5.78;;;;;;;;;;6196292;28;20520;-70
2022/04/01 02:12:42;;;;;;;7.22;4.55;;;;;;;;;;6196259;28;20026;-71
2022/04/01 02:15:42;;;;;;;5.93;3.92;;;;;;;;;;6196111;28;20022;-71
2022/04/01 02:18:43;;;;;;;8.00;4.90;;;;;;;;;;6177937;28;20086;-71
2022/04/01 02:21:43;;;;;;;8.57;4.95;;;;;;;;;;6172002;28;20022;-71
2022/04/01 02:24:44;;;;;;;7.80;5.30;;;;;;;;;;6178276;28;20029;-71
2022/04/01 02:27:44;;;;;;;9.10;5.63;;;;;;;;;;6196198;28;20033;-71
2022/04/01 02:30:45;;;;;;;8.48;5.55;;;;;;;;;;6194759;28;20030;-71
2022/04/01 02:33:46;;;;;;;10.10;6.37;;;;;;;;;;6174374;28;20331;-71
2022/04/01 02:36:46;;;;;;;7.82;5.03;;;;;;;;;;6177143;28;20711;-71
2022/04/01 02:39:47;;;;;;;7.72;5.03;;;;;;;;;;6195678;28;20038;-71
2022/04/01 02:42:49;;;;;;;10.63;5.53;;;;;;;;;;6195839;28;20033;-71
2022/04/01 02:45:50;;;;;;;8.20;5.88;;;;;;;;;;6191879;28;20525;-71
2022/04/01 02:48:50;;;;;;;9.27;4.82;;;;;;;;;;6171094;28;20038;-71
2022/04/01 02:51:53;;;;;;;8.20;5.10;;;;;;;;;;6171602;28;20034;-71
2022/04/01 02:54:53;;;;;;;8.77;5.95;;;;;;;;;;6178884;28;20275;-71
2022/04/01 02:57:53;;;;;;;7.15;5.18;;;;;;;;;;6195319;28;20026;-71
2022/04/01 03:00:53;;;;;;;13.10;7.50;;;;;;;;;;6195126;28;20250;-71
2022/04/01 03:03:54;;;;;;;12.63;6.78;;;;;;;;;;6194919;28;20029;-71
2022/04/01 03:06:55;;;;;;;10.65;6.82;;;;;;;;;;6193492;28;20085;-71
2022/04/01 03:09:56;;;;;;;10.27;6.93;;;;;;;;;;6195194;28;20634;-71
2022/04/01 03:12:56;;;;;;;11.43;8.02;;;;;;;;;;6194996;28;20053;-71
2022/04/01 03:15:56;;;;;;;11.15;7.38;;;;;;;;;;6192272;28;20076;-71
2022/04/01 03:18:57;;;;;;;12.85;8.18;;;;;;;;;;6194572;28;20496;-71
2022/04/01 03:21:57;;;;;;;11.35;6.90;;;;;;;;;;6193545;28;20560;-71
2022/04/01 03:24:58;;;;;;;13.93;8.30;;;;;;;;;;6194601;28;20022;-71
2022/04/01 03:28:00;;;;;;;15.43;10.10;;;;;;;;;;6195357;28;20109;-71
2022/04/01 03:31:03;;;;;;;17.27;10.02;;;;;;;;;;6194210;28;20026;-72
2022/04/01 03:34:04;;;;;;;15.38;10.02;;;;;;;;;;6172127;28;20482;-71
2022/04/01 03:37:05;;;;;;;17.85;11.25;;;;;;;;;;6169658;28;20074;-71
2022/04/01 03:40:05;;;;;;;14.90;9.40;;;;;;;;;;6170248;28;20031;-71
2022/04/01 03:43:06;;;;;;;16.45;9.52;;;;;;;;;;6170237;28;20030;-72
2022/04/01 03:46:08;;;;;;;16.55;10.55;;;;;;;;;;6169911;28;20058;-71
2022/04/01 03:49:12;;;;;;;17.05;10.13;;;;;;;;;;6170145;28;20030;-71
2022/04/01 03:52:13;;;;;;;14.52;9.32;;;;;;;;;;6170529;28;20046;-72
2022/04/01 03:55:15;;;;;;;14.25;9.43;;;;;;;;;;6180302;28;20049;-71
2022/04/01 03:58:18;;;;;;;12.23;7.50;;;;;;;;;;6193906;28;20413;-72
2022/04/01 04:01:19;;;;;;;14.60;7.93;;;;;;;;;;6194052;28;20022;-72
2022/04/01 04:04:20;;;;;;;11.93;8.20;;;;;;;;;;6194169;28;20019;-71
2022/04/01 04:07:23;;;;;;;12.48;6.78;;;;;;;;;;6193714;28;20054;-71
2022/04/01 04:10:27;;;;;;;11.77;7.97;;;;;;;;;;6194204;28;20026;-71
2022/04/01 04:13:27;;;;;;;12.70;7.38;;;;;;;;;;6193730;28;20034;-72
2022/04/01 04:16:31;;;;;;;10.57;6.53;;;;;;;;;;6191485;28;20504;-72
2022/04/01 04:19:50;;;;;;;11.20;6.40;;;;;;;;;;6192463;28;20022;-71
2022/04/01 04:22:51;;;;;;;10.38;7.00;;;;;;;;;;6193639;28;20018;-72
2022/04/01 04:26:04;;;;;;;12.53;7.10;;;;;;;;;;6194062;28;20015;-71
2022/04/01 04:29:08;;;;;;;11.70;6.57;;;;;;;;;;6193703;28;20026;-71
2022/04/01 04:32:11;;;;;;;10.52;8.25;;;;;;;;;;6187137;28;20386;-72
2022/04/01 04:35:12;;;;;;;12.05;7.35;;;;;;;;;;6169198;28;20483;-72
2022/04/01 04:38:12;;;;;;;12.43;8.20;;;;;;;;;;6170151;28;20026;-72
2022/04/01 04:41:12;;;;;;;11.13;6.55;;;;;;;;;;6181124;28;20061;-72
2022/04/01 04:44:13;;;;;;;11.90;6.75;;;;;;;;;;6190769;28;20042;-72
2022/04/01 04:47:14;;;;;;;11.07;6.93;;;;;;;;;;6191100;28;20026;-72
2022/04/01 04:50:18;;;;;;;9.98;6.07;;;;;;;;;;6197989;28;20033;-72
2022/04/01 04:53:19;;;;;;;12.77;7.20;;;;;;;;;;6197008;28;20425;-73
2022/04/01 04:56:20;;;;;;;12.07;7.15;;;;;;;;;;6197388;28;20491;-72
2022/04/01 04:59:22;;;;;;;14.90;8.05;;;;;;;;;;6177487;28;20031;-72
2022/04/01 05:02:31;;;;;;;10.75;6.78;;;;;;;;;;6173710;28;20023;-72
2022/04/01 05:05:34;;;;;;;10.00;6.88;;;;;;;;;;6189338;28;20470;-72
2022/04/01 05:08:49;;;;;;;12.27;7.57;;;;;;;;;;6196573;28;20043;-72
2022/04/01 05:11:59;;;;;;;9.65;6.38;;;;;;;;;;6194821;28;20042;-72
2022/04/01 05:14:59;;;;;;;10.68;6.25;;;;;;;;;;6196354;28;20014;-72
2022/04/01 05:18:02;;;;;;;10.97;6.47;;;;;;;;;;6185734;28;20385;-73
2022/04/01 05:21:02;;;;;;;8.15;5.43;;;;;;;;;;6195930;28;20257;-72
2022/04/01 05:24:05;;;;;;;12.15;7.93;;;;;;;;;;6195185;28;20057;-72
2022/04/01 05:27:10;;;;;;;16.38;8.50;;;;;;;;;;6195342;28;20049;-73
2022/04/01 05:30:16;;;;;;;15.13;7.68;;;;;;;;;;6195006;28;20022;-73
2022/04/01 05:33:17;;;;;;;13.27;6.90;;;;;;;;;;6195282;28;20077;-73
2022/04/01 05:36:18;;;;;;;8.95;6.72;;;;;;;;;;6194988;28;20421;-73
2022/04/01 05:39:19;;;;;;;8.85;4.97;;;;;;;;;;6194345;28;20030;-73
2022/04/01 05:42:19;;;;;;;10.30;6.85;;;;;;;;;;6193951;28;20022;-72
2022/04/01 05:45:20;;;;;;;11.48;6.68;;;;;;;;;;6206012;28;20041;-72
2022/04/01 05:48:21;;;;;;;10.43;6.03;;;;;;;;;;6194370;28;20018;-72
2022/04/01 05:51:21;;;;;;;15.30;7.95;;;;;;;;;;6194952;28;20018;-72
2022/04/01 05:54:23;;;;;;;15.55;7.88;;;;;;;;;;6194836;28;20373;-72
2022/04/01 05:57:23;;;;;;;12.10;6.93;;;;;;;;;;6194964;28;20019;-72
2022/04/01 06:00:24;;;;;;;10.70;7.03;;;;;;;;;;6200484;28;20298;-72
2022/04/01 06:03:39;;;;;;;12.32;6.90;;;;;;;;;;6199464;28;20027;-72
2022/04/01 06:06:41;;;;;;;13.88;8.35;;;;;;;;;;6218148;28;20069;-71
2022/04/01 06:09:58;;;;;;;12.55;8.02;;;;;;;;;;6196955;28;20062;-71
2022/04/01 06:13:01;;;;;;;12.95;8.95;;;;;;;;;;6195860;28;20041;-71
2022/04/01 06:16:01;;;;;;;14.38;8.07;;;;;;;;;;6192680;28;20065;-71
2022/04/01 06:19:18;;;;;;;12.93;8.88;;;;;;;;;;6192753;28;20028;-71
2022/04/01 06:22:20;;;;;;;11.27;7.63;;;;;;;;;;6195266;28;20268;-71
2022/04/01 06:25:25;;;;;;;12.35;7.53;;;;;;;;;;6193303;28;20018;-71
2022/04/01 06:28:30;;;;;;;10.85;6.68;;;;;;;;;;6195042;28;20382;-72
2022/04/01 06:31:31;;;;;;;8.75;4.60;;;;;;;;;;6192172;28;20026;-72
2022/04/01 06:34:40;;;;;;;11.52;6.03;;;;;;;;;;6192610;28;20049;-71
2022/04/01 06:37:50;;;;;;;13.75;8.68;;;;;;;;;;6191832;28;20082;-71
2022/04/01 06:40:53;;;;;;;10.40;6.07;;;;;;;;;;6195355;28;20066;-71
2022/04/01 06:43:53;;;;;;;15.52;7.28;;;;;;;;;;6192989;28;20471;-72
2022/04/01 06:46:53;;;;;;;9.75;5.40;;;;;;;;;;6177656;28;20015;-72
2022/04/01 06:49:54;;;;;;;8.88;6.43;;;;;;;;;;6167261;28;20026;-72
2022/04/01 06:52:54;;;;;;;10.90;5.78;;;;;;;;;;6168888;28;20023;-72
2022/04/01 06:55:54;;;;;;;10.57;6.85;;;;;;;;;;6184043;28;20022;-72
2022/04/01 06:58:55;;;;;;;11.65;7.05;;;;;;;;;;6191258;28;20018;-72
2022/04/01 07:01:55;;;;;;;14.98;8.32;;;;;;;;;;6194985;28;20025;-72
2022/04/01 07:04:55;;;;;;;18.60;9.40;;;;;;;;;;6194680;28;20028;-72
2022/04/01 07:07:56;;;;;;;11.23;6.50;;;;;;;;;;6195000;28;20297;-72
2022/04/01 07:10:57;;;;;;;13.40;7.30;;;;;;;;;;6194815;28;20432;-72
2022/04/01 07:13:57;;;;;;;10.73;6.60;;;;;;;;;;6193467;28;20029;-72
2022/04/01 07:16:58;;;;;;;11.37;5.73;;;;;;;;;;6182481;28;20477;-72
2022/04/01 07:19:58;;;;;;;13.07;6.43;;;;;;;;;;6194860;28;20293;-72
2022/04/01 07:22:58;;;;;;;10.27;6.90;;;;;;;;;;6194889;28;20062;-71
2022/04/01 07:25:59;;;;;;;10.15;5.18;;;;;;;;;;6193741;28;20113;-71
2022/04/01 07:28:59;;;;;;;11.25;5.68;;;;;;;;;;6189380;28;20076;-71
2022/04/01 07:35:18;;;;;;;11.02;6.82;;;;;;;;;;6210700;28;20069;-71
2022/04/01 07:38:18;;;;;;;7.83;4.63;;;;;;;;;;6207431;28;20056;-71
2022/04/01 07:41:18;;;;;;;12.77;7.22;;;;;;;;;;6194162;28;20648;-72
2022/04/01 07:44:21;;;;;;;10.10;6.47;;;;;;;;;;6189210;28;20409;-71
2022/04/01 07:47:22;;;;;;;11.13;6.95;;;;;;;;;;6189939;28;20025;-72
2022/04/01 07:50:22;;;;;;;10.15;6.18;;;;;;;;;;6207093;28;20025;-71
2022/04/01 07:53:22;;;;;;;9.88;6.13;;;;;;;;;;6214316;28;20038;-72
2022/04/01 07:56:30;;;;;;;11.52;6.95;;;;;;;;;;6213015;28;20049;-71
2022/04/01 07:59:31;;;;;;;10.63;6.75;;;;;;;;;;6201769;28;20022;-71
2022/04/01 08:02:31;;;;;;;13.27;8.13;;;;;;;;;;6204862;28;20018;-71
2022/04/01 08:05:31;;;;;;;15.90;8.30;;;;;;;;;;6209489;28;20469;-71
2022/04/01 08:08:32;;;;;;;12.37;6.63;;;;;;;;;;6207054;28;20050;-71
2022/04/01 08:11:33;;;;;;;10.35;7.25;;;;;;;;;;6201870;28;20324;-72
2022/04/01 08:14:36;;;;;;;12.25;6.97;;;;;;;;;;6205050;28;20058;-72
2022/04/01 08:17:36;;;;;;;13.43;7.97;;;;;;;;;;6198577;28;20108;-71
2022/04/01 08:20:37;;;;;;;17.40;9.10;;;;;;;;;;6201575;28;20022;-71
2022/04/01 08:23:37;;;;;;;20.70;11.68;;;;;;;;;;6200620;28;20026;-71
2022/04/01 08:26:37;;;;;;;16.73;8.57;;;;;;;;;;6200055;28;20015;-72
2022/04/01 08:29:38;;;;;;;16.33;8.02;;;;;;;;;;6215339;28;20052;-72
2022/04/01 08:32:38;;;;;;;17.27;8.60;;;;;;;;;;6202735;28;20144;-72
2022/04/01 08:35:39;;;;;;;15.65;7.68;;;;;;;;;;6198886;28;20033;-72
2022/04/01 08:38:40;;;;;;;14.40;8.10;;;;;;;;;;6198396;28;20022;-72
2022/04/01 08:41:40;;;;;;;15.27;7.97;;;;;;;;;;6202509;28;20400;-72
2022/04/01 08:44:44;;;;;;;14.90;8.60;;;;;;;;;;6200820;28;20018;-72
2022/04/01 08:47:45;;;;;;;16.63;9.48;;;;;;;;;;6201341;28;20027;-73
2022/04/01 08:50:45;;;;;;;20.08;11.52;;;;;;;;;;6198188;28;20042;-74
2022/04/01 08:53:46;;;;;;;19.65;10.60;;;;;;;;;;6198912;28;20058;-74
2022/04/01 08:56:46;;;;;;;27.23;14.50;;;;;;;;;;6196667;28;20563;-74
2022/04/01 08:59:47;;;;;;;17.42;9.57;;;;;;;;;;6194975;28;20014;-74
2022/04/01 09:02:58;;;;;;;15.23;9.55;;;;;;;;;;6197345;28;20426;-74
2022/04/01 09:05:59;;;;;;;18.50;8.90;;;;;;;;;;6197234;28;20421;-74
2022/04/01 09:08:59;;;;;;;18.63;9.60;;;;;;;;;;6196172;28;20053;-75
2022/04/01 09:12:04;;;;;;;14.65;7.65;;;;;;;;;;6196117;28;20034;-75
2022/04/01 09:15:06;;;;;;;11.07;6.45;;;;;;;;;;6193452;28;20022;-75
2022/04/01 09:18:06;;;;;;;14.77;9.27;;;;;;;;;;6194273;28;20482;-75
2022/04/01 09:21:07;;;;;;;12.07;7.45;;;;;;;;;;6194845;28;20046;-75
2022/04/01 09:24:10;;;;;;;10.68;6.82;;;;;;;;;;6196023;28;20014;-75
2022/04/01 09:27:10;;;;;;;11.30;6.32;;;;;;;;;;6193590;28;20488;-75
2022/04/01 09:30:12;;;;;;;9.88;6.32;;;;;;;;;;6195248;28;20018;-74
2022/04/01 09:33:12;;;;;;;10.10;6.55;;;;;;;;;;6191779;28;20019;-75
2022/04/01 09:36:17;;;;;;;11.52;7.55;;;;;;;;;;6192391;28;20030;-75
2022/04/01 09:39:19;;;;;;;11.35;6.85;;;;;;;;;;6192396;28;20466;-75
2022/04/01 09:42:19;;;;;;;11.77;5.90;;;;;;;;;;6193395;28;20022;-75
2022/04/01 09:45:30;;;;;;;13.75;8.20;;;;;;;;;;6193054;28;20037;-75
2022/04/01 09:48:37;;;;;;;14.63;7.40;;;;;;;;;;6194092;28;20014;-75
2022/04/01 09:51:40;;;;;;;13.10;8.27;;;;;;;;;;6193815;28;20026;-75
2022/04/01 09:54:44;;;;;;;15.00;8.63;;;;;;;;;;6191343;28;20396;-74
2022/04/01 09:57:44;;;;;;;12.30;6.75;;;;;;;;;;6193341;28;20019;-75
2022/04/01 10:00:45;;;;;;;13.60;7.10;;;;;;;;;;6196428;28;20066;-75
2022/04/01 10:03:45;;;;;;;10.95;6.22;;;;;;;;;;6195398;28;20018;-75
2022/04/01 10:06:46;;;;;;;14.63;8.07;;;;;;;;;;6204283;28;20497;-75
2022/04/01 10:09:48;;;;;;;13.60;7.50;;;;;;;;;;6218600;28;20265;-75
2022/04/01 10:12:50;;;;;;;12.30;8.98;;;;;;;;;;6200062;28;20504;-74
2022/04/01 10:15:51;;;;;;;15.82;8.52;;;;;;;;;;6201774;28;20023;-74
2022/04/01 10:18:51;;;;;;;9.10;6.47;;;;;;;;;;6194835;28;20029;-74
2022/04/01 10:21:51;;;;;;;9.55;5.97;;;;;;;;;;6207694;28;20015;-74
2022/04/01 10:24:57;;;;;;;11.50;7.03;;;;;;;;;;6211466;28;20072;-74
2022/04/01 10:28:01;;;;;;;13.77;8.52;;;;;;;;;;6207906;28;20364;-74
2022/04/01 10:31:02;;;;;;;11.20;6.88;;;;;;;;;;6212249;28;20010;-74
2022/04/01 10:34:21;;;;;;;13.18;6.57;;;;;;;;;;6207579;28;20021;-74
2022/04/01 10:37:23;;;;;;;10.88;6.78;;;;;;;;;;6203090;28;20018;-74
2022/04/01 10:40:30;;;;;;;9.38;6.63;;;;;;;;;;6203913;28;20511;-74
2022/04/01 10:43:31;;;;;;;12.32;8.13;;;;;;;;;;6194808;28;20091;-74
2022/04/01 10:46:31;;;;;;;9.98;6.75;;;;;;;;;;6199339;28;20014;-74
2022/04/01 10:52:54;;;;;;;11.05;8.02;;;;;;;;;;6205313;28;20031;-74
2022/04/01 10:56:14;;;;;;;13.20;7.50;;;;;;;;;;6204780;28;20037;-74
2022/04/01 10:59:14;;;;;;;12.57;8.43;;;;;;;;;;6189030;28;20386;-73
2022/04/01 11:02:18;;;;;;;12.40;7.28;;;;;;;;;;6219758;28;20060;-73
2022/04/01 11:05:22;;;;;;;12.00;7.72;;;;;;;;;;6202940;28;20089;-73
2022/04/01 11:08:24;;;;;;;12.45;7.72;;;;;;;;;;6207843;28;20101;-73
2022/04/01 11:11:25;;;;;;;10.90;7.18;;;;;;;;;;6201451;28;20508;-73
2022/04/01 11:14:25;;;;;;;13.75;8.07;;;;;;;;;;6194688;28;20026;-73
2022/04/01 11:17:26;;;;;;;12.55;6.93;;;;;;;;;;6193015;28;20084;-72
2022/04/01 11:20:27;;;;;;;16.10;8.20;;;;;;;;;;6195713;28;20040;-71
2022/04/01 11:23:27;;;;;;;12.07;7.18;;;;;;;;;;6214088;28;20026;-71
2022/04/01 11:26:41;;;;;;;12.15;7.47;;;;;;;;;;6198104;28;20065;-71
2022/04/01 11:30:01;;;;;;;13.57;7.72;;;;;;;;;;6193393;28;20026;-71
2022/04/01 11:33:13;;;;;;;12.82;7.63;;;;;;;;;;6192784;28;20030;-71
2022/04/01 11:36:18;;;;;;;14.77;10.88;;;;;;;;;;6190120;28;20041;-71
2022/04/01 11:39:19;;;;;;;11.25;8.13;;;;;;;;;;6193111;28;20045;-71
2022/04/01 11:42:20;;;;;;;13.73;6.82;;;;;;;;;;6193139;28;20022;-71
2022/04/01 11:45:21;;;;;;;9.55;5.97;;;;;;;;;;6194788;28;20023;-71
2022/04/01 11:48:22;;;;;;;11.80;6.90;;;;;;;;;;6176892;28;20358;-72
2022/04/01 11:51:24;;;;;;;13.70;6.80;;;;;;;;;;6192125;28;20040;-72
2022/04/01 11:54:24;;;;;;;15.20;8.70;;;;;;;;;;6189262;28;20026;-72
2022/04/01 11:57:25;;;;;;;14.88;9.38;;;;;;;;;;6188831;28;20641;-72
2022/04/01 12:00:27;;;;;;;14.35;7.53;;;;;;;;;;6190160;28;20085;-72
2022/04/01 12:03:27;;;;;;;17.63;7.90;;;;;;;;;;6192561;28;20022;-72
2022/04/01 12:09:46;;;;;;;17.88;11.15;;;;;;;;;;6191523;28;20265;-72
2022/04/01 12:12:53;;;;;;;14.93;10.50;;;;;;;;;;6190095;28;20389;-72
2022/04/01 12:15:54;;;;;;;11.75;8.48;;;;;;;;;;6186991;28;20029;-72
2022/04/01 12:18:57;;;;;;;12.30;8.43;;;;;;;;;;6190761;28;20018;-73
2022/04/01 12:21:59;;;;;;;11.02;7.28;;;;;;;;;;6191249;28;20113;-73
2022/04/01 12:24:59;;;;;;;;;;;;;;;;;;6191388;28;20461;-73
2022/04/01 12:28:01;;;;;;;15.82;8.95;;;;;;;;;;6189946;28;20341;-74
2022/04/01 12:31:02;;;;;;;11.98;7.90;;;;;;;;;;6188002;28;20022;-74
2022/04/01 12:34:02;;;;;;;12.75;6.75;;;;;;;;;;6188591;28;20021;-74
2022/04/01 12:37:04;;;;;;;15.60;9.18;;;;;;;;;;6187734;28;20019;-74
2022/04/01 12:40:08;;;;;;;13.70;8.43;;;;;;;;;;6187764;28;20022;-74
2022/04/01 12:43:26;;;;;;;10.98;7.63;;;;;;;;;;6189593;28;20037;-74
2022/04/01 12:46:30;;;;;;;12.50;9.40;;;;;;;;;;6185536;28;20042;-74
2022/04/01 12:49:33;;;;;;;18.95;9.25;;;;;;;;;;6167875;28;20041;-75
2022/04/01 12:52:33;;;;;;;10.13;7.10;;;;;;;;;;6182878;28;20034;-74
2022/04/01 12:55:33;;;;;;;14.03;7.73;;;;;;;;;;6190962;28;20026;-74
2022/04/01 12:58:45;;;;;;;14.07;8.93;;;;;;;;;;6191850;28;20359;-75
2022/04/01 13:01:55;;;;;;;14.57;8.30;;;;;;;;;;6192701;28;20281;-75
2022/04/01 13:04:56;;;;;;;12.68;8.18;;;;;;;;;;6192468;28;20069;-75
2022/04/01 13:07:56;;;;;;;15.13;8.07;;;;;;;;;;6191315;28;20053;-75
2022/04/01 13:11:09;;;;;;;20.10;8.55;;;;;;;;;;6194348;28;20274;-75
2022/04/01 13:14:20;;;;;;;12.68;8.15;;;;;;;;;;6192805;28;20121;-75
2022/04/01 13:17:20;;;;;;;13.35;7.28;;;;;;;;;;6189589;28;20482;-75
2022/04/01 13:20:22;;;;;;;14.35;9.13;;;;;;;;;;6192218;28;20041;-75
2022/04/01 13:23:22;;;;;;;27.55;12.93;;;;;;;;;;6188380;28;20022;-75
2022/04/01 13:26:24;;;;;;;14.60;8.80;;;;;;;;;;6190272;28;20101;-75
2022/04/01 13:29:25;;;;;;;15.02;9.27;;;;;;;;;;6191355;28;20030;-75
2022/04/01 13:32:25;;;;;;;22.67;11.82;;;;;;;;;;6192254;28;20076;-75
2022/04/01 13:35:26;;;;;;;12.18;8.75;;;;;;;;;;6191968;28;20076;-75
2022/04/01 13:38:28;;;;;;;14.90;10.80;;;;;;;;;;6192672;28;20133;-75
2022/04/01 13:41:28;;;;;;;16.25;9.43;;;;;;;;;;6190676;28;20080;-75
2022/04/01 13:44:29;;;;;;;14.98;9.48;;;;;;;;;;6191778;28;20015;-75
2022/04/01 13:47:29;;;;;;;14.68;8.75;;;;;;;;;;6187153;28;20007;-76
2022/04/01 13:50:30;;;;;;;10.95;6.65;;;;;;;;;;6191880;28;20022;-77
2022/04/01 13:53:30;;;;;;;12.60;7.55;;;;;;;;;;6192692;28;20052;-76
2022/04/01 13:56:31;;;;;;;16.20;10.48;;;;;;;;;;6187598;28;20034;-77
2022/04/01 13:59:31;;;;;;;17.85;10.10;;;;;;;;;;6188494;28;20027;-77
2022/04/01 14:02:32;;;;;;;14.27;8.18;;;;;;;;;;6190109;28;20018;-78
2022/04/01 14:05:33;;;;;;;12.57;6.57;;;;;;;;;;6192293;28;20025;-77
2022/04/01 14:08:34;;;;;;;17.90;9.67;;;;;;;;;;6191163;28;20364;-77
2022/04/01 14:11:35;;;;;;;18.38;11.38;;;;;;;;;;6192317;28;20088;-77
2022/04/01 14:14:35;;;;;;;20.25;9.95;;;;;;;;;;6189193;28;20425;-77
2022/04/01 14:17:35;;;;;;;17.05;9.85;;;;;;;;;;6189041;28;20030;-77
2022/04/01 14:20:36;;;;;;;20.40;10.30;;;;;;;;;;6186269;28;20654;-76
2022/04/01 14:23:36;;;;;;;29.20;13.82;;;;;;;;;;6191278;28;20522;-76
2022/04/01 14:26:37;;;;;;;13.98;8.45;;;;;;;;;;6189619;28;20034;-78
2022/04/01 14:32:56;;;;;;;20.10;10.40;;;;;;;;;;6181197;28;20031;-76
2022/04/01 14:35:56;;;;;;;15.80;8.05;;;;;;;;;;6187964;28;20092;-76
2022/04/01 14:38:57;;;;;;;14.82;8.90;;;;;;;;;;6194519;28;20125;-76
2022/04/01 14:41:58;;;;;;;22.83;10.70;;;;;;;;;;6195859;28;20098;-75
2022/04/01 14:45:04;;;;;;;18.23;11.77;;;;;;;;;;6195837;28;20024;-76
2022/04/01 14:48:05;;;;;;;19.27;10.02;;;;;;;;;;6173357;28;20030;-76
2022/04/01 14:51:05;;;;;;;18.13;9.00;;;;;;;;;;6192510;28;20054;-76
2022/04/01 14:54:05;;;;;;;22.95;10.02;;;;;;;;;;6195436;28;20025;-76
2022/04/01 14:57:06;;;;;;;15.90;8.95;;;;;;;;;;6190661;28;20053;-76
2022/04/01 15:00:09;;;;;;;18.88;9.35;;;;;;;;;;6191456;28;20374;-76
2022/04/01 15:03:09;;;;;;;17.23;11.48;;;;;;;;;;6192514;28;20088;-76
2022/04/01 15:06:09;;;;;;;16.60;8.75;;;;;;;;;;6189925;28;20019;-76
2022/04/01 15:09:09;;;;;;;18.17;9.13;;;;;;;;;;6191316;28;20140;-76
2022/04/01 15:12:10;;;;;;;13.18;7.85;;;;;;;;;;6191996;28;20466;-76
2022/04/01 15:15:11;;;;;;;15.77;8.82;;;;;;;;;;6191006;28;20445;-76
2022/04/01 15:18:12;;;;;;;16.35;8.98;;;;;;;;;;6190371;28;20030;-76
2022/04/01 15:21:12;;;;;;;15.70;8.77;;;;;;;;;;6189588;28;20045;-77
2022/04/01 15:24:13;;;;;;;24.90;12.20;;;;;;;;;;6191741;28;20045;-77
2022/04/01 15:27:13;;;;;;;21.33;10.25;;;;;;;;;;6191642;28;20025;-77
2022/04/01 15:30:14;;;;;;;19.17;8.33;;;;;;;;;;6191080;28;20049;-77
2022/04/01 15:33:14;;;;;;;14.15;7.20;;;;;;;;;;6187814;28;20717;-77
2022/04/01 15:36:20;;;;;;;17.02;8.20;;;;;;;;;;6188971;28;20030;-76
2022/04/01 15:39:22;;;;;;;20.23;8.73;;;;;;;;;;6190178;28;20037;-77
2022/04/01 15:42:23;;;;;;;32.35;13.27;;;;;;;;;;6189139;28;20034;-77
2022/04/01 15:45:26;;;;;;;34.17;12.53;;;;;;;;;;6191232;28;20101;-77
2022/04/01 15:48:27;;;;;;;17.60;8.35;;;;;;;;;;6188798;28;20344;-77
2022/04/01 15:51:28;;;;;;;17.38;10.25;;;;;;;;;;6190588;28;20026;-77
2022/04/01 15:54:29;;;;;;;16.83;10.00;;;;;;;;;;6191938;28;20038;-77
2022/04/01 15:57:30;;;;;;;28.45;13.45;;;;;;;;;;6190371;28;20026;-77
2022/04/01 16:00:31;;;;;;;18.77;8.18;;;;;;;;;;6190085;28;20061;-77
2022/04/01 16:03:32;;;;;;;18.13;8.82;;;;;;;;;;6192543;28;20457;-77
2022/04/01 16:06:33;;;;;;;22.23;9.93;;;;;;;;;;6191034;28;20018;-78
2022/04/01 16:09:34;;;;;;;22.15;13.20;;;;;;;;;;6190692;28;20417;-78
2022/04/01 16:12:34;;;;;;;27.30;13.17;;;;;;;;;;6191499;28;20386;-77
2022/04/01 16:15:36;;;;;;;24.27;12.48;;;;;;;;;;6190511;28;20293;-77
2022/04/01 16:18:36;;;;;;;19.93;10.07;;;;;;;;;;6185167;28;20097;-77
2022/04/01 16:21:37;;;;;;;17.73;10.05;;;;;;;;;;6197458;28;20477;-78
2022/04/01 16:24:37;;;;;;;27.90;13.48;;;;;;;;;;6199856;28;20632;-78
2022/04/01 16:27:38;;;;;;;24.05;11.18;;;;;;;;;;6213073;28;20033;-77
2022/04/01 16:30:38;;;;;;;20.40;11.07;;;;;;;;;;6204648;28;20084;-78
2022/04/01 16:33:40;;;;;;;27.13;13.30;;;;;;;;;;6190702;28;20026;-78
2022/04/01 16:36:40;;;;;;;18.95;9.20;;;;;;;;;;6191667;28;20504;-78
2022/04/01 16:39:41;;;;;;;21.40;10.27;;;;;;;;;;6191678;28;20319;-78
2022/04/01 16:42:41;;;;;;;18.23;8.23;;;;;;;;;;6189100;28;20396;-77
2022/04/01 16:45:41;;;;;;;26.42;11.32;;;;;;;;;;6195513;28;20389;-77
2022/04/01 16:48:42;;;;;;;25.95;11.60;;;;;;;;;;6196253;28;20041;-77
2022/04/01 16:51:42;;;;;;;27.48;12.80;;;;;;;;;;6195766;28;20026;-77
2022/04/01 16:54:43;;;;;;;27.55;14.15;;;;;;;;;;6193390;28;20093;-77
2022/04/01 16:57:43;;;;;;;27.98;12.07;;;;;;;;;;6194910;28;20026;-78
2022/04/01 17:00:43;;;;;;;20.63;10.70;;;;;;;;;;6195473;28;20088;-78
2022/04/01 17:03:43;;;;;;;25.25;11.98;;;;;;;;;;6191185;28;20015;-78
2022/04/01 17:13:22;;;;;;;18.60;11.10;;;;;;;;;;6195624;28;20035;-79
2022/04/01 17:16:22;;;;;;;21.48;11.65;;;;;;;;;;6194832;28;20034;-79
2022/04/01 17:19:23;;;;;;;23.17;11.93;;;;;;;;;;6194616;28;20486;-79
2022/04/01 17:22:24;;;;;;;27.20;11.25;;;;;;;;;;6191788;28;20058;-79
2022/04/01 17:25:24;;;;;;;26.48;13.95;;;;;;;;;;6186134;28;20032;-79
2022/04/01 17:28:25;;;;;;;16.55;8.98;;;;;;;;;;6187672;28;20030;-79
2022/04/01 17:31:25;;;;;;;16.67;8.95;;;;;;;;;;6188576;28;20021;-79
2022/04/01 17:34:27;;;;;;;17.98;11.48;;;;;;;;;;6177366;28;20030;-79
2022/04/01 17:37:27;;;;;;;23.92;12.43;;;;;;;;;;6179900;28;20033;-79
2022/04/01 17:40:27;;;;;;;20.50;10.52;;;;;;;;;;6194048;28;20153;-79
2022/04/01 17:43:28;;;;;;;23.08;11.55;;;;;;;;;;6194195;28;20026;-79
2022/04/01 17:46:29;;;;;;;29.42;14.35;;;;;;;;;;6190505;28;20022;-79
2022/04/01 17:49:30;;;;;;;25.90;9.70;;;;;;;;;;6190975;28;20022;-79
2022/04/01 17:52:31;;;;;;;28.23;14.52;;;;;;;;;;6192198;28;20362;-79
2022/04/01 17:55:36;;;;;;;27.08;14.38;;;;;;;;;;6190446;28;20458;-79
2022/04/01 17:58:39;;;;;;;21.38;12.73;;;;;;;;;;6188417;28;20026;-79
2022/04/01 18:01:39;;;;;;;20.88;12.57;;;;;;;;;;6187048;28;20018;-78
2022/04/01 18:04:40;;;;;;;23.65;12.75;;;;;;;;;;6188119;28;20536;-79
2022/04/01 18:07:44;;;;;;;19.17;10.80;;;;;;;;;;6187658;28;20185;-79
2022/04/01 18:10:47;;;;;;;24.55;10.48;;;;;;;;;;6189490;28;20430;-79
2022/04/01 18:13:48;;;;;;;17.92;11.80;;;;;;;;;;6189084;28;20106;-79
2022/04/01 18:16:48;;;;;;;24.40;12.93;;;;;;;;;;6196541;28;20040;-79
2022/04/01 18:19:49;;;;;;;18.60;11.13;;;;;;;;;;6195090;28;20393;-79
2022/04/01 18:22:49;;;;;;;27.75;14.40;;;;;;;;;;6194815;28;20018;-79